createdAt,value
2018-10-02T00:00:37.424Z,8.10
2018-10-02T00:03:06.292Z,8.10
2018-10-02T00:05:34.895Z,8.10
2018-10-02T00:08:03.492Z,8.10
2018-10-02T00:10:32.094Z,8.10
2018-10-02T00:13:05.964Z,8.10
2018-10-02T00:15:34.556Z,8.10
2018-10-02T00:18:03.153Z,8.10
2018-10-02T00:20:31.763Z,8.10
2018-10-02T00:23:00.351Z,8.10
2018-10-02T00:25:28.943Z,8.10
2018-10-02T00:27:57.526Z,8.20
2018-10-02T00:30:26.203Z,8.20
2018-10-02T00:32:54.797Z,8.10
2018-10-02T00:35:23.420Z,8.10
2018-10-02T00:37:52.016Z,8.10
2018-10-02T00:40:20.638Z,8.10
2018-10-02T00:42:49.231Z,8.00
2018-10-02T00:45:17.835Z,8.10
2018-10-02T00:47:46.432Z,8.00
2018-10-02T00:50:15.031Z,7.90
2018-10-02T00:52:43.636Z,7.90
2018-10-02T00:55:12.248Z,7.90
2018-10-02T00:57:40.844Z,7.90
2018-10-02T01:00:09.466Z,7.90
2018-10-02T01:02:38.066Z,7.90
2018-10-02T01:05:06.674Z,7.90
2018-10-02T01:07:35.283Z,7.90
2018-10-02T01:10:03.903Z,8.00
2018-10-02T01:12:32.503Z,8.00
2018-10-02T01:15:01.102Z,8.10
2018-10-02T01:17:29.701Z,8.10
2018-10-02T01:19:58.295Z,8.10
2018-10-02T01:22:26.906Z,8.10
2018-10-02T01:24:55.503Z,8.20
2018-10-02T01:27:24.103Z,8.20
2018-10-02T01:29:52.695Z,8.10
2018-10-02T01:32:21.324Z,8.10
2018-10-02T01:34:49.915Z,8.10
2018-10-02T01:37:18.512Z,8.20
2018-10-02T01:39:47.120Z,8.20
2018-10-02T01:42:15.705Z,8.20
2018-10-02T01:44:44.290Z,8.20
2018-10-02T01:47:12.887Z,8.20
2018-10-02T01:49:41.491Z,8.20
2018-10-02T01:52:10.096Z,8.20
2018-10-02T01:54:38.713Z,8.20
2018-10-02T01:57:07.439Z,8.10
2018-10-02T01:59:36.025Z,8.10
2018-10-02T02:02:04.627Z,8.10
2018-10-02T02:04:33.233Z,8.10
2018-10-02T02:07:01.839Z,8.10
2018-10-02T02:09:30.441Z,8.20
2018-10-02T02:11:59.054Z,8.10
2018-10-02T02:14:27.643Z,8.10
2018-10-02T02:16:56.256Z,8.10
2018-10-02T02:19:25.258Z,8.10
2018-10-02T02:21:53.863Z,8.10
2018-10-02T02:24:22.485Z,8.20
2018-10-02T02:26:51.086Z,8.20
2018-10-02T02:29:19.686Z,8.20
2018-10-02T02:31:48.299Z,8.10
2018-10-02T02:34:16.899Z,8.10
2018-10-02T02:36:45.525Z,8.10
2018-10-02T02:39:14.108Z,8.10
2018-10-02T02:41:42.753Z,8.00
2018-10-02T02:44:11.355Z,8.00
2018-10-02T02:46:40.023Z,8.00
2018-10-02T02:49:14.051Z,8.00
2018-10-02T02:51:42.701Z,7.90
2018-10-02T02:54:11.317Z,7.90
2018-10-02T02:56:39.943Z,7.90
2018-10-02T02:59:08.555Z,7.90
2018-10-02T03:01:37.192Z,7.90
2018-10-02T03:04:05.816Z,7.90
2018-10-02T03:06:34.571Z,7.90
2018-10-02T03:09:03.190Z,7.90
2018-10-02T03:11:31.808Z,7.90
2018-10-02T03:14:00.430Z,7.90
2018-10-02T03:16:29.051Z,7.90
2018-10-02T03:18:57.719Z,7.90
2018-10-02T03:21:26.333Z,7.90
2018-10-02T03:23:54.977Z,7.90
2018-10-02T03:26:23.531Z,7.90
2018-10-02T03:28:52.135Z,7.90
2018-10-02T03:31:20.763Z,7.90
2018-10-02T03:33:49.528Z,7.90
2018-10-02T03:36:18.175Z,7.90
2018-10-02T03:38:46.791Z,7.90
2018-10-02T03:41:15.447Z,7.80
2018-10-02T03:43:44.063Z,7.80
2018-10-02T03:46:12.719Z,7.90
2018-10-02T03:48:41.399Z,7.90
2018-10-02T03:51:09.949Z,7.90
2018-10-02T03:53:38.583Z,7.90
2018-10-02T03:56:07.195Z,7.90
2018-10-02T03:58:36.004Z,7.90
2018-10-02T04:01:04.616Z,8.00
2018-10-02T04:03:33.265Z,8.00
2018-10-02T04:06:01.880Z,8.00
2018-10-02T04:08:30.579Z,8.00
2018-10-02T04:10:59.183Z,8.00
2018-10-02T04:13:27.808Z,8.00
2018-10-02T04:15:56.445Z,8.00
2018-10-02T04:18:25.042Z,8.00
2018-10-02T04:20:53.738Z,8.00
2018-10-02T04:23:22.262Z,8.00
2018-10-02T04:25:50.971Z,8.10
2018-10-02T04:28:19.641Z,8.10
2018-10-02T04:30:48.292Z,8.10
2018-10-02T04:33:16.906Z,8.10
2018-10-02T04:35:45.598Z,8.10
2018-10-02T04:38:14.222Z,8.20
2018-10-02T04:40:42.804Z,8.20
2018-10-02T04:43:11.431Z,8.20
2018-10-02T04:45:40.036Z,8.20
2018-10-02T04:48:08.616Z,8.20
2018-10-02T04:50:37.215Z,8.30
2018-10-02T04:53:05.871Z,8.30
2018-10-02T04:55:34.533Z,8.30
2018-10-02T04:58:03.098Z,8.30
2018-10-02T05:00:31.726Z,8.30
2018-10-02T05:03:00.328Z,8.30
2018-10-02T05:05:28.933Z,8.30
2018-10-02T05:07:57.584Z,8.40
2018-10-02T05:10:26.205Z,8.40
2018-10-02T05:12:54.826Z,8.40
2018-10-02T05:15:23.423Z,8.40
2018-10-02T05:17:52.023Z,8.40
2018-10-02T05:20:20.637Z,8.50
2018-10-02T05:22:49.259Z,8.50
2018-10-02T05:25:17.875Z,8.50
2018-10-02T05:27:56.072Z,8.50
2018-10-02T05:30:26.287Z,8.50
2018-10-02T05:32:55.362Z,8.50
2018-10-02T05:35:24.017Z,8.60
2018-10-02T05:37:52.547Z,8.60
2018-10-02T05:40:21.211Z,8.60
2018-10-02T05:42:50.016Z,8.60
2018-10-02T05:45:18.499Z,8.60
2018-10-02T05:47:47.091Z,8.60
2018-10-02T05:50:15.702Z,8.50
2018-10-02T05:52:44.318Z,8.50
2018-10-02T05:55:12.932Z,8.40
2018-10-02T05:57:41.569Z,8.40
2018-10-02T06:00:10.273Z,8.30
2018-10-02T06:02:38.995Z,8.30
2018-10-02T06:05:07.590Z,8.30
2018-10-02T06:07:36.192Z,8.20
2018-10-02T06:10:04.954Z,8.20
2018-10-02T06:12:33.503Z,8.20
2018-10-02T06:15:02.141Z,8.10
2018-10-02T06:17:30.772Z,8.20
2018-10-02T06:19:59.403Z,8.20
2018-10-02T06:22:28.015Z,8.20
2018-10-02T06:24:56.649Z,8.20
2018-10-02T06:27:25.255Z,8.20
2018-10-02T06:29:53.879Z,8.20
2018-10-02T06:32:22.482Z,8.20
2018-10-02T06:34:51.099Z,8.30
2018-10-02T06:37:19.796Z,8.30
2018-10-02T06:39:48.407Z,8.30
2018-10-02T06:42:17.036Z,8.30
2018-10-02T06:44:45.714Z,8.30
2018-10-02T06:47:14.264Z,8.40
2018-10-02T06:49:42.851Z,8.40
2018-10-02T06:52:11.728Z,8.40
2018-10-02T06:54:40.117Z,8.40
2018-10-02T06:57:08.823Z,8.40
2018-10-02T06:59:37.331Z,8.40
2018-10-02T07:02:06.017Z,8.40
2018-10-02T07:04:34.661Z,8.50
2018-10-02T07:07:03.271Z,8.50
2018-10-02T07:09:31.928Z,8.50
2018-10-02T07:12:00.569Z,8.60
2018-10-02T07:14:29.168Z,8.60
2018-10-02T07:16:57.867Z,8.60
2018-10-02T07:19:26.696Z,8.60
2018-10-02T07:21:55.300Z,8.60
2018-10-02T07:24:23.913Z,8.70
2018-10-02T07:26:52.698Z,8.70
2018-10-02T07:29:21.127Z,8.80
2018-10-02T07:31:49.768Z,8.80
2018-10-02T07:34:18.408Z,8.90
2018-10-02T07:36:47.053Z,8.90
2018-10-02T07:39:15.672Z,8.90
2018-10-02T07:41:44.326Z,8.90
2018-10-02T07:44:12.912Z,8.90
2018-10-02T07:46:41.539Z,9.00
2018-10-02T07:49:10.131Z,9.00
2018-10-02T07:51:38.779Z,9.00
2018-10-02T07:54:07.421Z,9.00
2018-10-02T07:56:36.044Z,9.00
2018-10-02T07:59:04.834Z,9.00
2018-10-02T08:01:33.460Z,8.90
2018-10-02T08:04:02.089Z,8.90
2018-10-02T08:06:30.741Z,8.80
2018-10-02T08:08:59.433Z,8.70
2018-10-02T08:11:27.999Z,8.70
2018-10-02T08:13:56.599Z,8.70
2018-10-02T08:16:25.223Z,8.70
2018-10-02T08:18:53.834Z,8.70
2018-10-02T08:21:22.467Z,8.80
2018-10-02T08:23:51.122Z,8.90
2018-10-02T08:26:19.750Z,9.00
2018-10-02T08:28:48.398Z,8.90
2018-10-02T08:31:17.039Z,8.90
2018-10-02T08:33:45.676Z,8.90
2018-10-02T08:36:14.361Z,8.80
2018-10-02T08:38:42.912Z,8.80
2018-10-02T08:41:11.496Z,8.70
2018-10-02T08:43:40.153Z,8.70
2018-10-02T08:46:08.784Z,8.70
2018-10-02T08:48:37.408Z,8.80
2018-10-02T08:51:06.086Z,8.90
2018-10-02T08:53:34.679Z,8.90
2018-10-02T08:56:03.236Z,9.00
2018-10-02T08:58:31.900Z,9.10
2018-10-02T09:01:00.523Z,9.10
2018-10-02T09:03:29.151Z,9.20
2018-10-02T09:05:57.763Z,9.30
2018-10-02T09:08:26.363Z,9.30
2018-10-02T09:10:54.997Z,9.30
2018-10-02T09:13:23.608Z,9.40
2018-10-02T09:15:52.413Z,9.60
2018-10-02T09:18:20.861Z,9.60
2018-10-02T09:20:49.452Z,9.60
2018-10-02T09:23:18.016Z,9.60
2018-10-02T09:25:46.612Z,9.60
2018-10-02T09:28:15.294Z,9.60
2018-10-02T09:30:49.553Z,9.70
2018-10-02T09:33:23.580Z,9.70
2018-10-02T09:35:57.580Z,9.60
2018-10-02T09:38:31.590Z,9.60
2018-10-02T09:41:05.706Z,9.60
2018-10-02T09:43:38.071Z,9.70
2018-10-02T09:46:06.620Z,9.70
2018-10-02T09:48:35.291Z,9.70
2018-10-02T09:51:03.852Z,9.70
2018-10-02T09:53:32.487Z,9.70
2018-10-02T09:56:01.086Z,9.70
2018-10-02T09:58:29.787Z,9.60
2018-10-02T10:01:03.750Z,9.70
2018-10-02T10:03:32.299Z,9.60
2018-10-02T10:06:00.895Z,9.50
2018-10-02T10:08:29.524Z,9.50
2018-10-02T10:10:58.160Z,9.40
2018-10-02T10:13:26.775Z,9.30
2018-10-02T10:15:55.387Z,9.40
2018-10-02T10:18:24.000Z,9.30
2018-10-02T10:20:52.634Z,9.40
2018-10-02T10:23:21.248Z,9.40
2018-10-02T10:25:49.832Z,9.40
2018-10-02T10:28:18.504Z,9.50
2018-10-02T10:30:47.166Z,9.50
2018-10-02T10:33:15.797Z,9.50
2018-10-02T10:35:44.382Z,9.50
2018-10-02T10:38:12.967Z,9.40
2018-10-02T10:40:41.742Z,9.50
2018-10-02T10:43:10.146Z,9.50
2018-10-02T10:45:38.759Z,9.50
2018-10-02T10:48:07.435Z,9.50
2018-10-02T10:50:36.045Z,9.50
2018-10-02T10:53:04.710Z,9.50
2018-10-02T10:55:36.399Z,9.50
2018-10-02T10:58:05.005Z,9.60
2018-10-02T11:00:33.613Z,9.60
2018-10-02T11:03:02.235Z,9.60
2018-10-02T11:05:30.803Z,9.60
2018-10-02T11:07:59.391Z,9.60
2018-10-02T11:10:27.983Z,9.60
2018-10-02T11:12:56.567Z,9.60
2018-10-02T11:15:27.336Z,9.60
2018-10-02T11:17:55.928Z,9.60
2018-10-02T11:20:26.485Z,9.60
2018-10-02T11:22:55.063Z,9.70
2018-10-02T11:25:23.711Z,9.60
2018-10-02T11:27:52.266Z,9.70
2018-10-02T11:30:20.867Z,9.70
2018-10-02T11:32:49.458Z,9.70
2018-10-02T11:35:18.173Z,9.70
2018-10-02T11:37:46.893Z,9.80
2018-10-02T11:40:15.859Z,9.90
2018-10-02T11:42:44.487Z,10.00
2018-10-02T11:45:13.113Z,10.00
2018-10-02T11:47:41.691Z,10.00
2018-10-02T11:50:10.288Z,10.10
2018-10-02T11:52:38.888Z,10.10
2018-10-02T11:55:07.537Z,10.10
2018-10-02T11:57:36.106Z,10.20
2018-10-02T12:00:05.217Z,10.20
2018-10-02T12:02:33.826Z,10.20
2018-10-02T12:05:02.420Z,10.30
2018-10-02T12:07:31.024Z,10.30
2018-10-02T12:09:59.624Z,10.30
2018-10-02T12:12:28.222Z,10.40
2018-10-02T12:14:56.890Z,10.40
2018-10-02T12:17:25.428Z,10.40
2018-10-02T12:19:54.240Z,10.40
2018-10-02T12:22:22.637Z,10.50
2018-10-02T12:24:51.227Z,10.50
2018-10-02T12:27:19.811Z,10.60
2018-10-02T12:29:48.456Z,10.60
2018-10-02T12:32:17.068Z,10.60
2018-10-02T12:34:45.696Z,10.70
2018-10-02T12:37:14.344Z,10.70
2018-10-02T12:39:42.958Z,10.80
2018-10-02T12:42:11.546Z,10.80
2018-10-02T12:44:40.198Z,10.90
2018-10-02T12:47:08.795Z,10.90
2018-10-02T12:49:37.412Z,10.90
2018-10-02T12:52:06.032Z,10.90
2018-10-02T12:54:34.612Z,11.00
2018-10-02T12:57:03.208Z,11.00
2018-10-02T12:59:31.805Z,11.00
2018-10-02T13:02:00.399Z,11.10
2018-10-02T13:04:29.045Z,11.10
2018-10-02T13:06:57.954Z,11.20
2018-10-02T13:09:26.516Z,11.20
2018-10-02T13:11:55.133Z,11.20
2018-10-02T13:14:23.716Z,11.20
2018-10-02T13:16:52.327Z,11.20
2018-10-02T13:19:20.951Z,11.40
2018-10-02T13:21:49.571Z,11.40
2018-10-02T13:24:18.167Z,11.40
2018-10-02T13:26:47.181Z,11.40
2018-10-02T13:29:15.775Z,11.40
2018-10-02T13:31:44.376Z,11.40
2018-10-02T13:34:13.475Z,11.50
2018-10-02T13:36:42.111Z,11.50
2018-10-02T13:39:10.708Z,11.60
2018-10-02T13:41:39.318Z,11.60
2018-10-02T13:44:07.924Z,11.60
2018-10-02T13:46:36.548Z,11.70
2018-10-02T13:49:05.155Z,11.60
2018-10-02T13:51:33.809Z,11.70
2018-10-02T13:54:02.524Z,11.70
2018-10-02T13:56:31.119Z,11.80
2018-10-02T13:58:59.747Z,11.80
2018-10-02T14:01:28.373Z,11.80
2018-10-02T14:03:56.947Z,11.80
2018-10-02T14:06:25.537Z,11.80
2018-10-02T14:08:54.154Z,11.90
2018-10-02T14:11:22.775Z,11.90
2018-10-02T14:13:51.388Z,11.90
2018-10-02T14:16:20.138Z,11.90
2018-10-02T14:18:49.056Z,12.00
2018-10-02T14:21:17.647Z,12.00
2018-10-02T14:23:46.239Z,12.10
2018-10-02T14:26:14.835Z,12.10
2018-10-02T14:28:43.437Z,12.20
2018-10-02T14:31:12.048Z,12.20
2018-10-02T14:33:40.664Z,12.20
2018-10-02T14:36:09.263Z,12.20
2018-10-02T14:38:37.889Z,12.20
2018-10-02T14:41:06.576Z,12.20
2018-10-02T14:43:35.191Z,12.20
2018-10-02T14:46:03.795Z,12.30
2018-10-02T14:48:32.412Z,12.30
2018-10-02T14:51:01.663Z,12.40
2018-10-02T14:53:30.284Z,12.40
2018-10-02T14:56:05.964Z,12.60
2018-10-02T14:58:37.089Z,12.80
2018-10-02T15:01:07.015Z,12.90
2018-10-02T15:03:37.306Z,13.00
2018-10-02T15:06:10.219Z,13.00
2018-10-02T15:08:41.936Z,13.00
2018-10-02T15:11:15.989Z,13.10
2018-10-02T15:13:44.615Z,13.20
2018-10-02T15:16:13.234Z,13.40
2018-10-02T15:18:48.822Z,13.40
2018-10-02T15:21:18.286Z,13.30
2018-10-02T15:23:46.917Z,13.30
2018-10-02T15:26:15.639Z,13.40
2018-10-02T15:28:45.461Z,13.40
2018-10-02T15:31:14.292Z,13.40
2018-10-02T15:33:42.807Z,13.40
2018-10-02T15:36:18.286Z,13.40
2018-10-02T15:38:47.013Z,13.40
2018-10-02T15:41:15.615Z,13.40
2018-10-02T15:43:44.272Z,13.40
2018-10-02T15:46:12.875Z,13.50
2018-10-02T15:48:41.504Z,13.50
2018-10-02T15:51:10.155Z,13.50
2018-10-02T15:53:38.717Z,13.60
2018-10-02T15:56:10.065Z,13.60
2018-10-02T15:58:38.988Z,13.50
2018-10-02T16:01:07.611Z,13.50
2018-10-02T16:03:36.284Z,13.50
2018-10-02T16:06:04.868Z,13.50
2018-10-02T16:08:33.514Z,13.50
2018-10-02T16:11:02.176Z,13.50
2018-10-02T16:13:30.715Z,13.60
2018-10-02T16:15:59.347Z,13.60
2018-10-02T16:18:28.092Z,13.70
2018-10-02T16:20:56.639Z,13.70
2018-10-02T16:23:25.249Z,13.80
2018-10-02T16:25:53.860Z,13.90
2018-10-02T16:28:22.459Z,13.90
2018-10-02T16:30:51.085Z,13.90
2018-10-02T16:33:19.707Z,13.90
2018-10-02T16:35:48.314Z,13.90
2018-10-02T16:38:16.937Z,13.90
2018-10-02T16:40:45.771Z,13.90
2018-10-02T16:43:14.315Z,13.90
2018-10-02T16:45:42.980Z,13.90
2018-10-02T16:48:11.605Z,13.80
2018-10-02T16:51:44.916Z,13.80
2018-10-02T16:54:20.075Z,13.70
2018-10-02T16:56:48.673Z,13.60
2018-10-02T16:59:17.324Z,13.60
2018-10-02T17:01:47.083Z,13.60
2018-10-02T17:04:16.288Z,13.60
2018-10-02T17:06:44.891Z,13.50
2018-10-02T17:09:13.508Z,13.50
2018-10-02T17:11:42.425Z,13.50
2018-10-02T17:14:11.012Z,13.50
2018-10-02T17:16:39.651Z,13.50
2018-10-02T17:19:08.257Z,13.50
2018-10-02T17:21:37.402Z,13.40
2018-10-02T17:24:06.183Z,13.40
2018-10-02T17:26:34.864Z,13.40
2018-10-02T17:29:03.520Z,13.30
2018-10-02T17:31:32.062Z,13.20
2018-10-02T17:34:00.696Z,13.20
2018-10-02T17:36:29.301Z,13.10
2018-10-02T17:39:07.378Z,13.10
2018-10-02T17:41:36.039Z,13.10
2018-10-02T17:44:04.651Z,13.10
2018-10-02T17:46:33.500Z,12.90
2018-10-02T17:49:02.505Z,12.90
2018-10-02T17:51:31.315Z,12.80
2018-10-02T17:53:59.910Z,12.90
2018-10-02T17:56:28.516Z,12.80
2018-10-02T17:58:57.123Z,12.80
2018-10-02T18:01:25.815Z,12.80
2018-10-02T18:03:54.332Z,12.90
2018-10-02T18:06:22.936Z,12.90
2018-10-02T18:08:51.548Z,12.90
2018-10-02T18:11:20.169Z,12.90
2018-10-02T18:13:48.767Z,12.90
2018-10-02T18:16:17.403Z,12.80
2018-10-02T18:18:45.996Z,12.90
2018-10-02T18:21:14.595Z,12.80
2018-10-02T18:23:43.199Z,12.80
2018-10-02T18:26:11.811Z,12.70
2018-10-02T18:28:40.535Z,12.70
2018-10-02T18:31:09.152Z,12.70
2018-10-02T18:33:37.752Z,12.70
2018-10-02T18:36:06.366Z,12.60
2018-10-02T18:38:34.966Z,12.60
2018-10-02T18:41:03.587Z,12.60
2018-10-02T18:43:32.192Z,12.60
2018-10-02T18:46:00.795Z,12.60
2018-10-02T18:48:29.422Z,12.50
2018-10-02T18:50:58.120Z,12.50
2018-10-02T18:53:26.743Z,12.50
2018-10-02T18:55:55.341Z,12.40
2018-10-02T18:58:23.952Z,12.50
2018-10-02T19:00:52.539Z,12.40
2018-10-02T19:03:21.135Z,12.50
2018-10-02T19:05:49.767Z,12.40
2018-10-02T19:08:23.824Z,12.50
2018-10-02T19:10:52.444Z,12.40
2018-10-02T19:13:21.044Z,12.40
2018-10-02T19:16:57.660Z,12.20
2018-10-02T19:19:31.603Z,12.30
2018-10-02T19:22:00.239Z,12.30
2018-10-02T19:24:28.839Z,12.30
2018-10-02T19:26:57.460Z,12.20
2018-10-02T19:29:26.059Z,12.20
2018-10-02T19:32:00.148Z,12.20
2018-10-02T19:34:28.754Z,12.20
2018-10-02T19:36:57.347Z,12.20
2018-10-02T19:39:28.443Z,12.10
2018-10-02T19:41:57.359Z,12.10
2018-10-02T19:44:25.977Z,12.10
2018-10-02T19:46:56.176Z,12.00
2018-10-02T19:49:27.209Z,12.00
2018-10-02T19:51:59.807Z,12.00
2018-10-02T19:54:28.415Z,12.00
2018-10-02T19:56:57.216Z,12.00
2018-10-02T19:59:25.981Z,12.00
2018-10-02T20:01:54.498Z,11.90
2018-10-02T20:04:23.169Z,11.90
2018-10-02T20:06:51.715Z,11.90
2018-10-02T20:09:20.315Z,11.90
2018-10-02T20:11:48.924Z,12.00
2018-10-02T20:14:17.540Z,12.00
2018-10-02T20:16:46.139Z,12.00
2018-10-02T20:19:14.747Z,12.00
2018-10-02T20:21:43.519Z,12.00
2018-10-02T20:24:12.107Z,12.00
2018-10-02T20:26:40.712Z,11.90
2018-10-02T20:29:09.407Z,12.10
2018-10-02T20:31:40.787Z,12.00
2018-10-02T20:34:09.409Z,12.00
2018-10-02T20:36:38.340Z,12.00
2018-10-02T20:39:08.159Z,12.10
2018-10-02T20:41:36.811Z,12.10
2018-10-02T20:44:05.463Z,12.10
2018-10-02T20:46:34.092Z,12.10
2018-10-02T20:49:02.737Z,12.10
2018-10-02T20:51:31.356Z,12.10
2018-10-02T20:54:00.192Z,12.20
2018-10-02T20:56:29.507Z,12.20
2018-10-02T20:58:58.190Z,12.20
2018-10-02T21:01:27.203Z,12.20
2018-10-02T21:03:55.791Z,12.20
2018-10-02T21:06:24.708Z,12.20
2018-10-02T21:08:53.346Z,12.20
2018-10-02T21:11:21.948Z,12.20
2018-10-02T21:13:50.552Z,12.30
2018-10-02T21:16:19.356Z,12.30
2018-10-02T21:18:47.922Z,12.30
2018-10-02T21:21:16.546Z,12.30
2018-10-02T21:23:45.139Z,12.30
2018-10-02T21:26:13.747Z,12.30
2018-10-02T21:28:42.406Z,12.30
2018-10-02T21:31:10.959Z,12.30
2018-10-02T21:33:39.571Z,12.30
2018-10-02T21:36:08.220Z,12.40
2018-10-02T21:38:36.806Z,12.30
2018-10-02T21:41:05.414Z,12.30
2018-10-02T21:43:34.028Z,12.30
2018-10-02T21:46:02.636Z,12.30
2018-10-02T21:48:31.273Z,12.30
2018-10-02T21:50:59.856Z,12.40
2018-10-02T21:53:28.475Z,12.40
2018-10-02T21:55:57.067Z,12.40
2018-10-02T21:58:25.671Z,12.30
2018-10-02T22:00:58.514Z,12.40
2018-10-02T22:03:27.131Z,12.40
2018-10-02T22:05:55.748Z,12.40
2018-10-02T22:08:24.351Z,12.40
2018-10-02T22:10:52.956Z,12.40
2018-10-02T22:13:21.563Z,12.40
2018-10-02T22:15:50.163Z,12.40
2018-10-02T22:18:18.762Z,12.40
2018-10-02T22:20:47.363Z,12.40
2018-10-02T22:23:15.983Z,12.40
2018-10-02T22:25:44.583Z,12.40
2018-10-02T22:28:13.191Z,12.40
2018-10-02T22:30:41.791Z,12.40
2018-10-02T22:33:10.422Z,12.40
2018-10-02T22:35:39.030Z,12.40
2018-10-02T22:38:07.660Z,12.40
2018-10-02T22:40:37.425Z,12.40
2018-10-02T22:43:06.103Z,12.40
2018-10-02T22:45:34.722Z,12.40
2018-10-02T22:48:03.322Z,12.40
2018-10-02T22:50:32.016Z,12.40
2018-10-02T22:53:00.675Z,12.40
2018-10-02T22:55:29.275Z,12.40
2018-10-02T22:57:57.872Z,12.30
2018-10-02T23:00:26.477Z,12.30
2018-10-02T23:02:55.103Z,12.30
2018-10-02T23:05:23.708Z,12.30
2018-10-02T23:07:52.360Z,12.20
2018-10-02T23:10:20.968Z,12.20
2018-10-02T23:12:49.567Z,12.20
2018-10-02T23:15:18.188Z,12.20
2018-10-02T23:17:46.764Z,12.30
2018-10-02T23:20:15.371Z,12.20
2018-10-02T23:22:43.975Z,12.20
2018-10-02T23:25:12.796Z,12.20
2018-10-02T23:27:41.599Z,12.20
2018-10-02T23:30:10.251Z,12.20
2018-10-02T23:32:46.748Z,12.20
2018-10-02T23:35:20.307Z,12.10
2018-10-02T23:37:48.991Z,12.10
2018-10-02T23:40:17.599Z,12.10
2018-10-02T23:42:46.544Z,12.00
2018-10-02T23:45:15.183Z,12.00
2018-10-02T23:47:43.899Z,12.00
2018-10-02T23:50:12.507Z,12.10
2018-10-02T23:52:41.608Z,12.10
2018-10-02T23:55:10.235Z,12.00
2018-10-02T23:57:38.827Z,11.90
